Terminal Aerodrome Forecast
Issued by NWS Shreveport, LA

Home | Current Version | Previous Version | Text Only | Print | Product List | Glossary On
Versions: 1 2 3 4 5 6 7 8 9 10 11 12 13 14 15 16 17 18 19 20 21 22 23 24 25
924
FTUS44 KSHV 210738 AAA
TAFTYR
TAF AMD
KTYR 210738Z 2108/2206 18005KT 2SM BR OVC002
      TEMPO 2108/2111 1/2SM FG VV001
     FM211100 26004KT 2SM BR OVC005
     FM211300 32006KT P6SM BKN020
     FM211900 31008KT P6SM BKN100=

USA.gov is the U.S. government's official web portal to all federal, state and local government web resources and services.